createdAt,value
2023-01-19T00:02:55.807Z,93163.88
2023-01-19T00:05:58.811Z,93181.19
2023-01-19T00:09:02.055Z,93183.13
2023-01-19T00:12:06.706Z,93196.03
2023-01-19T00:15:11.194Z,93197.88
2023-01-19T00:18:14.817Z,93193.56
2023-01-19T00:21:20.370Z,93204.03
2023-01-19T00:24:23.249Z,93226.16
2023-01-19T00:27:27.280Z,93224.31
2023-01-19T00:30:31.184Z,93232.13
2023-01-19T00:33:35.010Z,93238.38
2023-01-19T00:36:38.027Z,93241.19
2023-01-19T00:39:41.828Z,93231.72
2023-01-19T00:42:48.791Z,93254.81
2023-01-19T00:45:52.118Z,93262.47
2023-01-19T00:48:55.154Z,93260.50
2023-01-19T00:51:58.370Z,93264.38
2023-01-19T00:55:01.366Z,93273.81
2023-01-19T00:58:04.351Z,93273.78
2023-01-19T01:01:08.123Z,93276.59
2023-01-19T01:04:13.163Z,93285.56
2023-01-19T01:07:16.259Z,93287.56
2023-01-19T01:10:29.185Z,93283.34
2023-01-19T01:13:33.099Z,93293.78
2023-01-19T01:16:36.796Z,93295.53
2023-01-19T01:19:39.919Z,93303.84
2023-01-19T01:22:46.446Z,93309.75
2023-01-19T01:25:49.584Z,93314.66
2023-01-19T01:28:53.334Z,93323.63
2023-01-19T01:31:56.460Z,93325.38
2023-01-19T01:35:00.401Z,93336.09
2023-01-19T01:38:04.404Z,93340.81
2023-01-19T01:41:08.767Z,93338.56
2023-01-19T01:44:50.495Z,93348.47
2023-01-19T01:47:56.226Z,93341.34
2023-01-19T01:51:25.080Z,93350.25
2023-01-19T01:54:32.520Z,93352.81
2023-01-19T01:57:39.916Z,93350.66
2023-01-19T02:01:01.383Z,93349.88
2023-01-19T02:04:04.599Z,93363.13
2023-01-19T02:07:26.498Z,93377.25
2023-01-19T02:10:48.507Z,93371.50
2023-01-19T02:13:51.851Z,93372.88
2023-01-19T02:16:56.080Z,93384.63
2023-01-19T02:19:59.732Z,93376.34
2023-01-19T02:23:07.703Z,93377.00
2023-01-19T02:26:14.767Z,93374.00
2023-01-19T02:29:24.749Z,93374.97
2023-01-19T02:32:28.661Z,93385.44
2023-01-19T02:35:32.979Z,93382.06
2023-01-19T02:38:36.968Z,93382.59
2023-01-19T02:41:48.733Z,93390.00
2023-01-19T02:44:54.219Z,93385.66
2023-01-19T02:47:57.940Z,93394.25
2023-01-19T02:51:05.561Z,93396.19
2023-01-19T02:54:36.383Z,93397.19
2023-01-19T02:57:53.270Z,93402.13
2023-01-19T03:01:17.509Z,93400.81
2023-01-19T03:04:42.208Z,93407.03
2023-01-19T03:08:38.484Z,93413.53
2023-01-19T03:11:47.985Z,93407.44
2023-01-19T03:14:52.470Z,93412.16
2023-01-19T03:18:00.917Z,93399.78
2023-01-19T03:21:08.039Z,93393.56
2023-01-19T03:24:14.293Z,93396.13
2023-01-19T03:27:41.949Z,93399.72
2023-01-19T03:30:51.269Z,93391.44
2023-01-19T03:33:58.305Z,93380.50
2023-01-19T03:37:04.502Z,93396.22
2023-01-19T03:40:09.578Z,93398.41
2023-01-19T03:43:13.872Z,93396.31
2023-01-19T03:46:19.295Z,93396.91
2023-01-19T03:49:22.311Z,93398.31
2023-01-19T03:52:32.987Z,93397.97
2023-01-19T03:55:37.659Z,93390.75
2023-01-19T03:58:42.881Z,93381.81
2023-01-19T04:01:47.377Z,93380.47
2023-01-19T04:04:50.566Z,93373.34
2023-01-19T04:07:54.539Z,93382.13
2023-01-19T04:10:58.988Z,93390.25
2023-01-19T04:14:02.225Z,93380.41
2023-01-19T04:17:05.262Z,93373.16
2023-01-19T04:20:09.945Z,93379.34
2023-01-19T04:23:12.946Z,93373.22
2023-01-19T04:26:16.143Z,93377.03
2023-01-19T04:29:19.188Z,93385.56
2023-01-19T04:32:22.407Z,93374.72
2023-01-19T04:35:26.199Z,93360.50
2023-01-19T04:38:29.366Z,93374.38
2023-01-19T04:41:32.967Z,93358.41
2023-01-19T04:44:36.956Z,93365.88
2023-01-19T04:47:40.833Z,93368.97
2023-01-19T04:50:43.809Z,93356.09
2023-01-19T04:53:47.675Z,93348.69
2023-01-19T04:56:51.172Z,93355.38
2023-01-19T04:59:54.811Z,93346.69
2023-01-19T05:02:58.067Z,93340.44
2023-01-19T05:06:01.299Z,93355.25
2023-01-19T05:09:05.018Z,93359.91
2023-01-19T05:12:09.071Z,93374.59
2023-01-19T05:15:12.462Z,93364.94
2023-01-19T05:18:16.246Z,93369.75
2023-01-19T05:21:20.525Z,93368.06
2023-01-19T05:24:23.387Z,93374.50
2023-01-19T05:27:27.494Z,93375.31
2023-01-19T05:30:31.105Z,93377.94
2023-01-19T05:33:34.528Z,93380.13
2023-01-19T05:36:37.565Z,93370.44
2023-01-19T05:39:40.883Z,93373.53
2023-01-19T05:42:43.876Z,93384.38
2023-01-19T05:45:47.282Z,93397.84
2023-01-19T05:48:50.216Z,93395.00
2023-01-19T05:51:53.474Z,93396.63
2023-01-19T05:54:57.229Z,93398.13
2023-01-19T05:58:02.308Z,93391.97
2023-01-19T06:01:07.466Z,93397.06
2023-01-19T06:04:11.456Z,93385.97
2023-01-19T06:07:14.502Z,93381.19
2023-01-19T06:10:17.963Z,93388.63
2023-01-19T06:13:21.948Z,93397.09
2023-01-19T06:16:26.109Z,93425.63
2023-01-19T06:19:29.106Z,93430.22
2023-01-19T06:22:33.100Z,93408.53
2023-01-19T06:25:37.188Z,93403.50
2023-01-19T06:28:41.220Z,93401.94
2023-01-19T06:31:44.903Z,93429.09
2023-01-19T06:34:49.081Z,93425.38
2023-01-19T06:37:53.921Z,93421.75
2023-01-19T06:41:03.967Z,93419.56
2023-01-19T06:44:07.674Z,93449.34
2023-01-19T06:47:15.303Z,93456.06
2023-01-19T06:50:19.832Z,93448.28
2023-01-19T06:53:24.213Z,93455.94
2023-01-19T06:56:28.547Z,93448.75
2023-01-19T06:59:32.769Z,93451.50
2023-01-19T07:02:36.985Z,93456.31
2023-01-19T07:05:40.806Z,93456.75
2023-01-19T07:08:44.614Z,93488.25
2023-01-19T07:11:49.420Z,93484.72
2023-01-19T07:14:53.237Z,93493.25
2023-01-19T07:17:59.697Z,93485.91
2023-01-19T07:21:06.031Z,93463.34
2023-01-19T07:24:09.990Z,93465.63
2023-01-19T07:27:13.916Z,93465.22
2023-01-19T07:30:18.250Z,93479.06
2023-01-19T07:33:23.080Z,93489.91
2023-01-19T07:36:27.156Z,93499.50
2023-01-19T07:39:32.538Z,93504.25
2023-01-19T07:42:36.857Z,93502.13
2023-01-19T07:45:40.080Z,93515.50
2023-01-19T07:48:45.469Z,93501.94
2023-01-19T07:51:49.229Z,93502.00
2023-01-19T07:54:52.734Z,93510.34
2023-01-19T07:57:56.738Z,93526.19
2023-01-19T08:01:00.623Z,93510.47
2023-01-19T08:04:04.455Z,93510.28
2023-01-19T08:07:08.016Z,93509.28
2023-01-19T08:10:15.417Z,93505.63
2023-01-19T08:13:19.271Z,93509.34
2023-01-19T08:16:23.183Z,93518.69
2023-01-19T08:19:27.342Z,93524.50
2023-01-19T08:22:30.952Z,93517.69
2023-01-19T08:25:41.735Z,93507.75
2023-01-19T08:28:45.290Z,93500.16
2023-01-19T08:31:49.087Z,93502.75
2023-01-19T08:34:52.738Z,93509.47
2023-01-19T08:37:56.926Z,93508.06
2023-01-19T08:41:00.585Z,93486.59
2023-01-19T08:44:03.945Z,93498.91
2023-01-19T08:47:08.899Z,93494.81
2023-01-19T08:50:12.741Z,93493.06
2023-01-19T08:53:16.957Z,93501.25
2023-01-19T08:56:20.908Z,93511.28
2023-01-19T08:59:25.060Z,93523.38
2023-01-19T09:02:28.903Z,93513.44
2023-01-19T09:05:39.581Z,93518.38
2023-01-19T09:08:45.679Z,93524.22
2023-01-19T09:11:49.926Z,93524.06
2023-01-19T09:14:53.522Z,93527.59
2023-01-19T09:17:57.338Z,93529.44
2023-01-19T09:21:01.950Z,93529.22
2023-01-19T09:24:05.440Z,93535.69
2023-01-19T09:27:09.087Z,93539.19
2023-01-19T09:30:13.181Z,93549.19
2023-01-19T09:33:18.837Z,93550.34
2023-01-19T09:36:22.490Z,93555.47
2023-01-19T09:39:25.467Z,93567.22
2023-01-19T09:42:43.142Z,93581.75
2023-01-19T09:45:52.679Z,93565.84
2023-01-19T09:48:59.679Z,93568.94
2023-01-19T09:52:03.822Z,93568.94
2023-01-19T09:55:21.608Z,93564.16
2023-01-19T09:58:25.403Z,93568.25
2023-01-19T10:01:50.876Z,93574.84
2023-01-19T10:05:18.006Z,93572.47
2023-01-19T10:08:29.222Z,93575.94
2023-01-19T10:11:53.802Z,93571.41
2023-01-19T10:15:15.493Z,93579.63
2023-01-19T10:18:37.583Z,93584.41
2023-01-19T10:21:45.912Z,93599.94
2023-01-19T10:24:54.358Z,93592.00
2023-01-19T10:28:01.360Z,93598.56
2023-01-19T10:31:06.863Z,93592.50
2023-01-19T10:34:21.667Z,93585.34
2023-01-19T10:37:37.583Z,93593.38
2023-01-19T10:40:54.218Z,93602.66
2023-01-19T10:44:03.755Z,93605.56
2023-01-19T10:47:17.621Z,93603.19
2023-01-19T10:50:33.725Z,93609.59
2023-01-19T10:53:38.737Z,93607.22
2023-01-19T10:56:45.096Z,93617.28
2023-01-19T10:59:53.227Z,93604.84
2023-01-19T11:02:57.600Z,93615.13
2023-01-19T11:06:22.098Z,93615.13
2023-01-19T11:09:25.383Z,93615.72
2023-01-19T11:12:29.171Z,93616.53
2023-01-19T11:15:36.929Z,93616.94
2023-01-19T11:18:41.991Z,93624.19
2023-01-19T11:21:48.777Z,93610.53
2023-01-19T11:24:53.224Z,93613.63
2023-01-19T11:27:58.865Z,93609.34
2023-01-19T11:31:17.239Z,93602.88
2023-01-19T11:34:33.900Z,93602.72
2023-01-19T11:37:37.410Z,93605.91
2023-01-19T11:40:42.694Z,93610.69
2023-01-19T11:43:49.461Z,93615.34
2023-01-19T11:47:00.562Z,93614.44
2023-01-19T11:50:29.362Z,93614.03
2023-01-19T11:53:36.693Z,93622.84
2023-01-19T11:56:43.799Z,93611.44
2023-01-19T11:59:52.669Z,93612.22
2023-01-19T12:03:19.793Z,93611.75
2023-01-19T12:06:48.329Z,93605.44
2023-01-19T12:09:56.127Z,93612.22
2023-01-19T12:13:00.062Z,93614.53
2023-01-19T12:16:14.502Z,93609.28
2023-01-19T12:19:22.257Z,93605.94
2023-01-19T12:22:29.203Z,93601.06
2023-01-19T12:26:23.643Z,93599.19
2023-01-19T12:29:34.107Z,93599.28
2023-01-19T12:32:38.128Z,93595.41
2023-01-19T12:36:02.798Z,93596.00
2023-01-19T12:39:22.479Z,93598.84
2023-01-19T12:42:27.521Z,93575.22
2023-01-19T12:45:35.817Z,93586.69
2023-01-19T12:48:39.707Z,93586.50
2023-01-19T12:51:43.435Z,93585.56
2023-01-19T12:54:56.886Z,93579.00
2023-01-19T12:58:03.062Z,93583.03
2023-01-19T13:01:22.074Z,93591.41
2023-01-19T13:04:34.764Z,93583.47
2023-01-19T13:08:03.236Z,93589.59
2023-01-19T13:11:06.914Z,93579.81
2023-01-19T13:14:36.009Z,93582.16
2023-01-19T13:17:51.836Z,93578.69
2023-01-19T13:21:05.538Z,93572.44
2023-01-19T13:24:10.974Z,93565.41
2023-01-19T13:27:15.096Z,93566.81
2023-01-19T13:30:22.747Z,93570.88
2023-01-19T13:33:30.982Z,93564.66
2023-01-19T13:36:36.314Z,93563.50
2023-01-19T13:39:44.891Z,93555.78
2023-01-19T13:42:49.399Z,93553.13
2023-01-19T13:45:56.058Z,93561.53
2023-01-19T13:49:12.388Z,93551.03
2023-01-19T13:52:24.649Z,93556.84
2023-01-19T13:55:29.620Z,93545.75
2023-01-19T13:58:36.177Z,93548.53
2023-01-19T14:01:42.553Z,93546.94
2023-01-19T14:04:46.380Z,93534.19
2023-01-19T14:07:49.662Z,93541.53
2023-01-19T14:10:56.848Z,93533.06
2023-01-19T14:13:59.933Z,93520.44
2023-01-19T14:17:03.970Z,93519.41
2023-01-19T14:20:07.869Z,93518.16
2023-01-19T14:23:41.729Z,93514.31
2023-01-19T14:26:48.260Z,93507.22
2023-01-19T14:29:54.389Z,93503.25
2023-01-19T14:32:58.553Z,93501.94
2023-01-19T14:36:35.358Z,93502.38
2023-01-19T14:39:39.118Z,93490.75
2023-01-19T14:42:52.868Z,93490.69
2023-01-19T14:45:58.932Z,93480.97
2023-01-19T14:49:06.552Z,93478.66
2023-01-19T14:52:25.876Z,93477.31
2023-01-19T14:55:46.920Z,93476.34
2023-01-19T14:58:50.557Z,93467.66
2023-01-19T15:01:54.232Z,93463.41
2023-01-19T15:04:58.873Z,93456.19
2023-01-19T15:08:04.438Z,93457.06
2023-01-19T15:11:17.816Z,93439.03
2023-01-19T15:14:22.669Z,93441.47
2023-01-19T15:17:26.461Z,93441.34
2023-01-19T15:20:30.280Z,93434.50
2023-01-19T15:23:34.590Z,93433.97
2023-01-19T15:26:43.222Z,93424.63
2023-01-19T15:29:47.021Z,93424.63
2023-01-19T15:32:50.946Z,93431.09
2023-01-19T15:35:55.332Z,93436.78
2023-01-19T15:38:58.821Z,93438.00
2023-01-19T15:42:02.810Z,93434.50
2023-01-19T15:45:45.635Z,93430.72
2023-01-19T15:48:49.768Z,93425.47
2023-01-19T15:51:52.737Z,93415.66
2023-01-19T15:54:55.675Z,93412.47
2023-01-19T15:58:02.064Z,93409.34
2023-01-19T16:01:06.169Z,93405.44
2023-01-19T16:04:12.244Z,93404.16
2023-01-19T16:07:15.876Z,93410.28
2023-01-19T16:10:19.192Z,93411.75
2023-01-19T16:13:22.575Z,93397.41
2023-01-19T16:16:27.223Z,93398.19
2023-01-19T16:19:30.238Z,93394.03
2023-01-19T16:22:33.401Z,93393.91
2023-01-19T16:25:37.239Z,93393.16
2023-01-19T16:28:40.227Z,93380.03
2023-01-19T16:31:46.298Z,93381.59
2023-01-19T16:34:49.604Z,93383.25
2023-01-19T16:37:53.203Z,93368.66
2023-01-19T16:40:57.026Z,93378.59
2023-01-19T16:44:00.839Z,93374.59
2023-01-19T16:47:04.431Z,93367.25
2023-01-19T16:50:12.116Z,93368.81
2023-01-19T16:53:15.602Z,93367.72
2023-01-19T16:56:19.560Z,93360.88
2023-01-19T16:59:23.348Z,93359.59
2023-01-19T17:02:26.318Z,93367.75
2023-01-19T17:05:32.601Z,93355.97
2023-01-19T17:08:36.251Z,93345.94
2023-01-19T17:11:40.875Z,93346.53
2023-01-19T17:14:44.013Z,93341.97
2023-01-19T17:17:47.112Z,93339.66
2023-01-19T17:20:50.754Z,93333.44
2023-01-19T17:23:56.035Z,93332.75
2023-01-19T17:26:59.306Z,93328.72
2023-01-19T17:30:04.540Z,93320.44
2023-01-19T17:33:08.205Z,93325.28
2023-01-19T17:36:15.440Z,93334.00
2023-01-19T17:39:19.051Z,93339.84
2023-01-19T17:42:23.093Z,93341.34
2023-01-19T17:45:26.835Z,93331.81
2023-01-19T17:48:30.481Z,93323.19
2023-01-19T17:51:34.771Z,93334.53
2023-01-19T17:54:38.801Z,93336.72
2023-01-19T17:57:42.415Z,93334.72
2023-01-19T18:00:46.499Z,93332.38
2023-01-19T18:03:50.891Z,93331.78
2023-01-19T18:06:54.367Z,93317.06
2023-01-19T18:10:00.831Z,93315.69
2023-01-19T18:13:04.721Z,93311.19
2023-01-19T18:16:10.837Z,93317.88
2023-01-19T18:19:14.250Z,93305.09
2023-01-19T18:22:17.190Z,93297.41
2023-01-19T18:25:21.308Z,93306.38
2023-01-19T18:28:25.102Z,93314.50
2023-01-19T18:31:29.598Z,93312.63
2023-01-19T18:34:33.277Z,93306.09
2023-01-19T18:37:37.256Z,93309.41
2023-01-19T18:40:41.032Z,93304.44
2023-01-19T18:43:45.890Z,93310.34
2023-01-19T18:46:49.950Z,93304.59
2023-01-19T18:49:53.252Z,93299.47
2023-01-19T18:52:57.260Z,93301.53
2023-01-19T18:56:05.206Z,93294.69
2023-01-19T18:59:08.275Z,93288.19
2023-01-19T19:02:12.292Z,93291.22
2023-01-19T19:05:16.053Z,93282.72
2023-01-19T19:08:19.330Z,93282.13
2023-01-19T19:11:25.060Z,93270.53
2023-01-19T19:14:29.117Z,93278.09
2023-01-19T19:17:32.867Z,93275.72
2023-01-19T19:20:39.827Z,93277.47
2023-01-19T19:23:54.400Z,93272.22
2023-01-19T19:27:00.471Z,93278.91
2023-01-19T19:30:05.633Z,93268.13
2023-01-19T19:33:08.680Z,93267.16
2023-01-19T19:36:13.285Z,93266.53
2023-01-19T19:39:18.014Z,93263.16
2023-01-19T19:42:21.754Z,93261.53
2023-01-19T19:45:25.376Z,93259.19
2023-01-19T19:48:29.133Z,93251.41
2023-01-19T19:51:32.469Z,93256.78
2023-01-19T19:54:35.433Z,93245.91
2023-01-19T19:57:38.642Z,93245.75
2023-01-19T20:00:44.711Z,93242.56
2023-01-19T20:03:48.219Z,93238.16
2023-01-19T20:06:51.464Z,93239.72
2023-01-19T20:09:55.538Z,93238.94
2023-01-19T20:12:59.279Z,93229.31
2023-01-19T20:16:06.975Z,93235.53
2023-01-19T20:19:11.494Z,93229.31
2023-01-19T20:22:14.519Z,93230.13
2023-01-19T20:25:17.520Z,93219.69
2023-01-19T20:28:20.961Z,93232.13
2023-01-19T20:31:37.842Z,93227.81
2023-01-19T20:34:40.933Z,93212.88
2023-01-19T20:37:44.635Z,93210.06
2023-01-19T20:40:47.605Z,93212.03
2023-01-19T20:43:50.874Z,93208.47
2023-01-19T20:46:56.212Z,93205.69
2023-01-19T20:49:59.195Z,93209.91
2023-01-19T20:53:03.147Z,93211.16
2023-01-19T20:56:12.464Z,93211.72
2023-01-19T20:59:16.144Z,93220.16
2023-01-19T21:02:19.373Z,93209.44
2023-01-19T21:05:23.844Z,93192.44
2023-01-19T21:08:26.817Z,93201.59
2023-01-19T21:11:30.289Z,93203.28
2023-01-19T21:14:34.026Z,93194.84
2023-01-19T21:17:37.378Z,93199.38
2023-01-19T21:20:40.322Z,93194.25
2023-01-19T21:23:45.123Z,93187.09
2023-01-19T21:27:04.004Z,93192.72
2023-01-19T21:30:07.916Z,93187.88
2023-01-19T21:33:11.752Z,93183.91
2023-01-19T21:36:15.084Z,93191.22
2023-01-19T21:39:18.773Z,93182.06
2023-01-19T21:42:21.842Z,93167.53
2023-01-19T21:45:24.869Z,93176.84
2023-01-19T21:48:27.892Z,93170.72
2023-01-19T21:51:36.163Z,93163.47
2023-01-19T21:54:39.143Z,93158.53
2023-01-19T21:57:42.786Z,93147.25
2023-01-19T22:00:46.449Z,93146.09
2023-01-19T22:03:50.127Z,93150.94
2023-01-19T22:06:53.047Z,93149.53
2023-01-19T22:09:56.016Z,93146.28
2023-01-19T22:12:58.995Z,93146.97
2023-01-19T22:16:09.145Z,93144.88
2023-01-19T22:19:13.517Z,93150.41
2023-01-19T22:22:16.492Z,93136.47
2023-01-19T22:25:22.633Z,93145.81
2023-01-19T22:28:25.605Z,93151.44
2023-01-19T22:31:31.313Z,93147.31
2023-01-19T22:34:35.359Z,93154.66
2023-01-19T22:37:38.672Z,93156.91
2023-01-19T22:40:41.633Z,93155.31
2023-01-19T22:43:45.181Z,93149.97
2023-01-19T22:46:50.371Z,93163.78
2023-01-19T22:49:54.076Z,93162.13
2023-01-19T22:52:58.281Z,93162.81
2023-01-19T22:56:01.985Z,93150.84
2023-01-19T22:59:06.586Z,93147.63
2023-01-19T23:02:10.813Z,93152.28
2023-01-19T23:05:14.751Z,93145.28
2023-01-19T23:08:18.512Z,93146.53
2023-01-19T23:11:23.971Z,93149.50
2023-01-19T23:14:27.768Z,93153.75
2023-01-19T23:17:30.805Z,93158.72
2023-01-19T23:20:34.485Z,93158.19
2023-01-19T23:23:38.219Z,93151.38
2023-01-19T23:26:41.270Z,93154.41
2023-01-19T23:29:44.177Z,93158.63
2023-01-19T23:32:49.340Z,93161.03
2023-01-19T23:35:54.956Z,93160.53
2023-01-19T23:39:00.943Z,93158.78
2023-01-19T23:42:05.704Z,93161.88
2023-01-19T23:45:10.223Z,93162.88
2023-01-19T23:48:13.641Z,93171.28
2023-01-19T23:51:19.966Z,93170.50
2023-01-19T23:54:24.016Z,93176.59
2023-01-19T23:57:28.128Z,93175.91
